Time,TemperatureF,DewpointF,PressureIn,WindDirection,WindDirectionDegrees,WindSpeedMPH,WindSpeedGustMPH,Humidity,HourlyPrecipIn,Conditions,Clouds,dailyrainin,SolarRadiationWatts/m^2,SoftwareType,DateUTC
2013-02-18 00:01:00,29.0,26.0,-100.00,West,267,2.0,3.0,88,-99.99,,,0.14,1.000000,,2013-02-18 07:01:00,
2013-02-18 00:22:00,29.0,26.0,-100.00,West,267,2.0,3.0,88,-99.99,,,0.14,1.000000,,2013-02-18 07:22:00,
2013-02-18 00:32:00,29.0,26.0,-100.00,West,267,2.0,3.0,88,-99.99,,,0.14,1.000000,,2013-02-18 07:32:00,
2013-02-18 00:42:00,29.0,26.0,-100.00,West,267,2.0,3.0,88,-99.99,,,0.14,1.000000,,2013-02-18 07:42:00,
2013-02-18 00:52:00,29.0,26.0,-100.00,West,267,2.0,3.0,88,-99.99,,,0.14,1.000000,,2013-02-18 07:52:00,
2013-02-18 01:01:00,29.0,26.0,-100.00,WSW,239,1.0,5.0,90,0.00,,,0.14,1.000000,,2013-02-18 08:01:00,
2013-02-18 01:33:00,29.0,26.0,-100.00,WSW,239,1.0,5.0,90,0.00,,,0.14,1.000000,,2013-02-18 08:33:00,
2013-02-18 01:42:00,29.0,26.0,-100.00,WSW,239,1.0,5.0,90,0.00,,,0.14,1.000000,,2013-02-18 08:42:00,
2013-02-18 01:52:00,29.0,26.0,-100.00,WSW,239,1.0,5.0,90,0.00,,,0.14,1.000000,,2013-02-18 08:52:00,
2013-02-18 02:01:00,28.0,26.0,-100.00,NNW,330,1.0,2.0,93,0.00,,,0.14,1.000000,,2013-02-18 09:01:00,
2013-02-18 02:32:00,28.0,26.0,-100.00,NNW,330,1.0,2.0,93,0.00,,,0.14,1.000000,,2013-02-18 09:32:00,
2013-02-18 02:42:00,28.0,26.0,-100.00,NNW,330,1.0,2.0,93,0.00,,,0.14,1.000000,,2013-02-18 09:42:00,
2013-02-18 02:52:00,28.0,26.0,-100.00,NNW,330,1.0,2.0,93,0.00,,,0.14,1.000000,,2013-02-18 09:52:00,
2013-02-18 03:01:00,28.0,27.0,-100.00,WSW,243,0.0,2.0,95,0.00,,,0.14,1.000000,,2013-02-18 10:01:00,
2013-02-18 03:32:00,28.0,27.0,-100.00,WSW,243,0.0,2.0,95,0.00,,,0.14,1.000000,,2013-02-18 10:32:00,
2013-02-18 03:42:00,28.0,27.0,-100.00,WSW,243,0.0,2.0,95,0.00,,,0.14,1.000000,,2013-02-18 10:42:00,
2013-02-18 03:52:00,28.0,27.0,-100.00,WSW,243,0.0,2.0,95,0.00,,,0.14,1.000000,,2013-02-18 10:52:00,
2013-02-18 04:01:00,28.0,27.0,-100.00,WNW,292,0.0,3.0,96,0.00,,,-99.99,1.000000,,2013-02-18 11:01:00,
2013-02-18 04:22:00,28.0,27.0,-100.00,WNW,292,0.0,3.0,96,0.00,,,-99.99,1.000000,,2013-02-18 11:22:00,
2013-02-18 04:33:00,28.0,27.0,-100.00,WNW,292,0.0,3.0,96,0.00,,,-99.99,1.000000,,2013-02-18 11:33:00,
2013-02-18 04:43:00,28.0,27.0,-100.00,WNW,292,0.0,3.0,96,0.00,,,-99.99,1.000000,,2013-02-18 11:43:00,
2013-02-18 04:53:00,28.0,27.0,-100.00,WNW,292,0.0,3.0,96,0.00,,,-99.99,1.000000,,2013-02-18 11:53:00,
2013-02-18 05:01:00,28.0,27.0,-100.00,West,267,0.0,0.0,95,0.00,,,0.14,1.000000,,2013-02-18 12:01:00,
2013-02-18 05:32:00,28.0,27.0,-100.00,West,267,0.0,0.0,95,0.00,,,0.14,1.000000,,2013-02-18 12:32:00,
2013-02-18 05:42:00,28.0,27.0,-100.00,West,267,0.0,0.0,95,0.00,,,0.14,1.000000,,2013-02-18 12:42:00,
2013-02-18 05:53:00,28.0,27.0,-100.00,West,267,0.0,0.0,95,0.00,,,0.14,1.000000,,2013-02-18 12:53:00,
2013-02-18 06:01:00,27.0,26.0,-100.00,SW,215,0.0,0.0,96,0.00,,,0.14,1.000000,,2013-02-18 13:01:00,
2013-02-18 06:23:00,27.0,26.0,-100.00,SW,215,0.0,0.0,96,0.00,,,0.14,1.000000,,2013-02-18 13:23:00,
2013-02-18 06:32:00,27.0,26.0,-100.00,SW,215,0.0,0.0,96,0.00,,,0.14,1.000000,,2013-02-18 13:32:00,
2013-02-18 06:53:00,27.0,26.0,-100.00,SW,215,0.0,0.0,96,0.00,,,0.14,1.000000,,2013-02-18 13:53:00,
2013-02-18 07:01:00,26.0,25.0,-100.00,WSW,245,0.0,0.0,96,0.00,,,0.14,1.000000,,2013-02-18 14:01:00,
2013-02-18 07:33:00,26.0,25.0,-100.00,WSW,245,0.0,0.0,96,0.00,,,0.14,1.000000,,2013-02-18 14:33:00,
2013-02-18 07:42:00,26.0,25.0,-100.00,WSW,245,0.0,0.0,96,0.00,,,0.14,1.000000,,2013-02-18 14:42:00,
2013-02-18 07:53:00,26.0,25.0,-100.00,WSW,245,0.0,0.0,96,0.00,,,0.14,1.000000,,2013-02-18 14:53:00,
2013-02-18 08:01:00,25.0,24.0,-100.00,SW,236,1.0,1.0,94,0.00,,,0.14,5.000000,,2013-02-18 15:01:00,
2013-02-18 08:32:00,25.0,24.0,-100.00,SW,236,1.0,1.0,94,0.00,,,0.14,5.000000,,2013-02-18 15:32:00,
2013-02-18 08:42:00,25.0,24.0,-100.00,SW,236,1.0,1.0,94,0.00,,,0.14,5.000000,,2013-02-18 15:42:00,
2013-02-18 08:52:00,25.0,24.0,-100.00,SW,236,1.0,1.0,94,0.00,,,0.14,5.000000,,2013-02-18 15:52:00,
2013-02-18 09:01:00,28.0,26.0,-100.00,SSE,166,2.0,4.0,93,0.00,,,-99.99,31.000000,,2013-02-18 16:01:00,
2013-02-18 09:33:00,28.0,26.0,-100.00,SSE,166,2.0,4.0,93,0.00,,,-99.99,31.000000,,2013-02-18 16:33:00,
2013-02-18 09:43:00,28.0,26.0,-100.00,SSE,166,2.0,4.0,93,0.00,,,-99.99,31.000000,,2013-02-18 16:43:00,
2013-02-18 09:52:00,28.0,26.0,-100.00,SSE,166,2.0,4.0,93,0.00,,,-99.99,31.000000,,2013-02-18 16:52:00,
2013-02-18 10:01:00,35.0,26.0,-100.00,SSE,159,4.0,10.0,69,0.00,,,0.14,240.000000,,2013-02-18 17:01:00,
2013-02-18 10:33:00,35.0,26.0,-100.00,SSE,159,4.0,10.0,69,0.00,,,0.14,240.000000,,2013-02-18 17:33:00,
2013-02-18 10:43:00,35.0,26.0,-100.00,SSE,159,4.0,10.0,69,0.00,,,0.14,240.000000,,2013-02-18 17:43:00,
2013-02-18 10:52:00,35.0,26.0,-100.00,SSE,159,4.0,10.0,69,0.00,,,0.14,240.000000,,2013-02-18 17:52:00,
2013-02-18 11:01:00,38.0,23.0,-100.00,South,184,4.0,11.0,54,0.03,,,0.17,408.000000,,2013-02-18 18:01:00,
2013-02-18 11:33:00,38.0,23.0,-100.00,South,184,4.0,11.0,54,0.03,,,0.17,408.000000,,2013-02-18 18:33:00,
2013-02-18 11:43:00,38.0,23.0,-100.00,South,184,4.0,11.0,54,0.03,,,0.17,408.000000,,2013-02-18 18:43:00,
2013-02-18 11:52:00,38.0,23.0,-100.00,South,184,4.0,11.0,54,0.03,,,0.17,408.000000,,2013-02-18 18:52:00,
2013-02-18 12:01:00,40.0,20.0,-100.00,SSE,154,6.0,10.0,45,0.00,,,0.15,496.000000,,2013-02-18 19:01:00,
2013-02-18 12:33:00,40.0,20.0,-100.00,SSE,154,6.0,10.0,45,0.00,,,0.15,496.000000,,2013-02-18 19:33:00,
2013-02-18 12:43:00,40.0,20.0,-100.00,SSE,154,6.0,10.0,45,0.00,,,0.15,496.000000,,2013-02-18 19:43:00,
2013-02-18 12:52:00,40.0,20.0,-100.00,SSE,154,6.0,10.0,45,0.00,,,0.15,496.000000,,2013-02-18 19:52:00,
2013-02-18 14:01:00,42.0,17.0,-100.00,South,173,6.0,11.0,36,-99.99,,,0.03,439.000000,,2013-02-18 21:01:00,
2013-02-18 14:33:00,42.0,17.0,-100.00,South,173,6.0,11.0,36,-99.99,,,0.03,439.000000,,2013-02-18 21:33:00,
2013-02-18 14:43:00,42.0,17.0,-100.00,South,173,6.0,11.0,36,-99.99,,,0.03,439.000000,,2013-02-18 21:43:00,
2013-02-18 14:52:00,42.0,17.0,-100.00,South,173,6.0,11.0,36,-99.99,,,0.03,439.000000,,2013-02-18 21:52:00,
2013-02-18 15:01:00,41.0,15.0,-100.00,South,183,4.0,11.0,34,0.00,,,0.03,293.000000,,2013-02-18 22:01:00,
2013-02-18 15:33:00,41.0,15.0,-100.00,South,183,4.0,11.0,34,0.00,,,0.03,293.000000,,2013-02-18 22:33:00,
2013-02-18 15:43:00,41.0,15.0,-100.00,South,183,4.0,11.0,34,0.00,,,0.03,293.000000,,2013-02-18 22:43:00,
2013-02-18 15:53:00,41.0,15.0,-100.00,South,183,4.0,11.0,34,0.00,,,0.03,293.000000,,2013-02-18 22:53:00,
2013-02-18 16:01:00,42.0,18.0,-100.00,SSE,149,3.0,10.0,38,0.00,,,0.03,223.000000,,2013-02-18 23:01:00,
2013-02-18 16:23:00,42.0,18.0,-100.00,SSE,149,3.0,10.0,38,0.00,,,0.03,223.000000,,2013-02-18 23:23:00,
2013-02-18 16:34:00,42.0,18.0,-100.00,SSE,149,3.0,10.0,38,0.00,,,0.03,223.000000,,2013-02-18 23:34:00,
2013-02-18 16:43:00,42.0,18.0,-100.00,SSE,149,3.0,10.0,38,0.00,,,0.03,223.000000,,2013-02-18 23:43:00,
2013-02-18 16:53:00,42.0,18.0,-100.00,SSE,149,3.0,10.0,38,0.00,,,0.03,223.000000,,2013-02-18 23:53:00,
2013-02-18 17:01:00,39.0,14.0,-100.00,NW,307,2.0,7.0,35,0.00,,,0.03,83.000000,,2013-02-19 00:01:00,
2013-02-18 17:35:00,39.0,14.0,-100.00,NW,307,2.0,7.0,35,0.00,,,0.03,83.000000,,2013-02-19 00:35:00,
2013-02-18 17:44:00,39.0,14.0,-100.00,NW,307,2.0,7.0,35,0.00,,,0.03,83.000000,,2013-02-19 00:44:00,
2013-02-18 17:54:00,39.0,14.0,-100.00,NW,307,2.0,7.0,35,0.00,,,0.03,83.000000,,2013-02-19 00:54:00,
2013-02-18 18:01:00,34.0,17.0,-100.00,WSW,237,2.0,3.0,49,0.00,,,0.03,28.000000,,2013-02-19 01:01:00,
2013-02-18 18:24:00,34.0,17.0,-100.00,WSW,237,2.0,3.0,49,0.00,,,0.03,28.000000,,2013-02-19 01:24:00,
2013-02-18 18:35:00,34.0,17.0,-100.00,WSW,237,2.0,3.0,49,0.00,,,0.03,28.000000,,2013-02-19 01:35:00,
2013-02-18 18:44:00,34.0,17.0,-100.00,WSW,237,2.0,3.0,49,0.00,,,0.03,28.000000,,2013-02-19 01:44:00,
2013-02-18 18:55:00,34.0,17.0,-100.00,WSW,237,2.0,3.0,49,0.00,,,0.03,28.000000,,2013-02-19 01:55:00,
2013-02-18 19:01:00,32.0,23.0,-100.00,SW,236,2.0,3.0,69,0.00,,,0.03,2.000000,,2013-02-19 02:01:00,
2013-02-18 19:35:00,32.0,23.0,-100.00,SW,236,2.0,3.0,69,0.00,,,0.03,2.000000,,2013-02-19 02:35:00,
2013-02-18 19:43:00,32.0,23.0,-100.00,SW,236,2.0,3.0,69,0.00,,,0.03,2.000000,,2013-02-19 02:43:00,
2013-02-18 19:54:00,32.0,23.0,-100.00,SW,236,2.0,3.0,69,0.00,,,0.03,2.000000,,2013-02-19 02:54:00,
2013-02-18 20:01:00,31.0,23.0,-100.00,SW,227,1.0,3.0,72,0.00,,,0.03,1.000000,,2013-02-19 03:01:00,
2013-02-18 20:25:00,31.0,23.0,-100.00,SW,227,1.0,3.0,72,0.00,,,0.03,1.000000,,2013-02-19 03:25:00,
2013-02-18 20:35:00,31.0,23.0,-100.00,SW,227,1.0,3.0,72,0.00,,,0.03,1.000000,,2013-02-19 03:35:00,
2013-02-18 20:45:00,31.0,23.0,-100.00,SW,227,1.0,3.0,72,0.00,,,0.03,1.000000,,2013-02-19 03:45:00,
2013-02-18 20:54:00,31.0,23.0,-100.00,SW,227,1.0,3.0,72,0.00,,,0.03,1.000000,,2013-02-19 03:54:00,
2013-02-18 21:01:00,29.0,22.0,-100.00,SSW,210,3.0,4.0,75,0.00,,,0.03,1.000000,,2013-02-19 04:01:00,
2013-02-18 21:24:00,29.0,22.0,-100.00,SSW,210,3.0,4.0,75,0.00,,,0.03,1.000000,,2013-02-19 04:24:00,
2013-02-18 21:34:00,29.0,22.0,-100.00,SSW,210,3.0,4.0,75,0.00,,,0.03,1.000000,,2013-02-19 04:34:00,
2013-02-18 21:44:00,29.0,22.0,-100.00,SSW,210,3.0,4.0,75,0.00,,,0.03,1.000000,,2013-02-19 04:44:00,
2013-02-18 21:54:00,29.0,22.0,-100.00,SSW,210,3.0,4.0,75,0.00,,,0.03,1.000000,,2013-02-19 04:54:00,
2013-02-18 22:01:00,28.0,21.0,-100.00,SSW,210,2.0,5.0,75,0.00,,,0.03,1.000000,,2013-02-19 05:01:00,
2013-02-18 22:32:00,28.0,21.0,-100.00,SSW,210,2.0,5.0,75,0.00,,,0.03,1.000000,,2013-02-19 05:32:00,
2013-02-18 22:43:00,28.0,21.0,-100.00,SSW,210,2.0,5.0,75,0.00,,,0.03,1.000000,,2013-02-19 05:43:00,
2013-02-18 22:52:00,28.0,21.0,-100.00,SSW,210,2.0,5.0,75,0.00,,,0.03,1.000000,,2013-02-19 05:52:00,
2013-02-18 23:01:00,28.0,22.0,-100.00,SW,219,1.0,3.0,79,0.00,,,-99.99,1.000000,,2013-02-19 06:01:00,
2013-02-18 23:33:00,28.0,22.0,-100.00,SW,219,1.0,3.0,79,0.00,,,-99.99,1.000000,,2013-02-19 06:33:00,
2013-02-18 23:42:00,28.0,22.0,-100.00,SW,219,1.0,3.0,79,0.00,,,-99.99,1.000000,,2013-02-19 06:42:00,
2013-02-18 23:52:00,28.0,22.0,-100.00,SW,219,1.0,3.0,79,0.00,,,-99.99,1.000000,,2013-02-19 06:52:00,